| Station | Date | Time | Temp (°F) | RH (%) | Dew Pt (°F) | Wind Spd (mph) | Wind Dir (°) | Wind Gust (mph) | Latest Rain (In) | Daily Rain (In) | Daily Min Temp (°F) | Daily Max Temp (°F) |
|---|---|---|---|---|---|---|---|---|---|---|---|---|
| Rockpile Upper (Cooley) | 9/2/26 | 1900 | 60.1 3.8 | 64 10 | 48.1 0.1 | 3.1 1.1 | WNW | 282 | 14.5 2.6 | 0.00 | 0.10 | 51.6 0.3 | 70.4 0.7 |
| Rockpile Lower (Cooley) | 9/2/26 | 1845 | 64.5 4.4 | 54 13 | 47.6 1.7 | 4.7 3.5 | W | 262 | 9.9 7.5 | 0.00 | 0.13 | 54.6 0.4 | 72.3 0.4 |
| Cloverdale-East (Ranch 83) | 9/2/26 | 1900 | 68.2 1.9 | - | - | 3.8 2.4 | W | 272 | 9.8 2.2 | 0.00 | 0.06 | 55.1 0.2 | 76.3 2.3 |
| Cloverdale-SE (Ranch 38) | 9/2/26 | 1900 | 67.0 3.1 | 54 8 | 49.6 0.8 | 6.5 1.5 | SW | 225 | 10.3 0.9 | 0.00 | 0.06 | 56.5 0.9 | 76.3 2.4 |
| Geyserville-North (Hoffman) | 9/2/26 | 1900 | 70.6 3.9 | 49 6 | 50.8 0.6 | 5.4 1.4 | W | 267 | 10.7 0.4 | 0.00 | 0.00 | 59.0 6.9 | 79.5 2.4 |
| Geyserville (Ranch 3) | 9/2/26 | 1900 | 70.3 2.9 | 46 6 | 48.5 0.6 | 5.2 0.9 | W | 260 | 9.3 0.6 | 0.00 | 0.09 | 58.8 6.0 | 75.7 0.5 |
| Geyserville-East (Ranch 40) | 9/2/26 | 1900 | 68.0 3.6 | 53 7 | 50.4 0.1 | 5.5 1.0 | W | 269 | 12.0 0.9 | 0.00 | 0.09 | 57.1 4.5 | 74.9 1.5 |
| Geyserville-South (Nervo Station) | 9/2/26 | 1900 | 69.5 3.9 | - | - | 4.5 0.3 | W | 272 | 9.1 3.7 | 0.00 | 0.14 | 57.8 3.8 | 76.3 2.4 |
| Peterson (Ranch 09) | 9/2/26 | 1900 | 69.2 2.8 | 47 5 | 48.1 0.0 | 5.2 0.8 | WSW | 245 | 9.1 1.9 | 0.00 | 0.14 | 57.8 7.9 | 74.9 0.4 |
| Crazy Creek Ranch | 9/2/26 | 1900 | 70.0 3.3 | 52 5 | 51.5 0.4 | 3.3 1.2 | WSW | 249 | 8.3 3.6 | 0.00 | 0.15 | 59.4 9.7 | 76.6 0.3 |
| Whitton Ranch (201e) | 9/2/26 | 1900 | 70.7 4.5 | 46 9 | 48.7 0.8 | 3.7 0.4 | WSW | 258 | 7.8 2.3 | 0.00 | 0.18 | 58.1 12.1 | 78.2 0.3 |
| Lytton East (Shop Hill Bottom) | 9/2/26 | 1900 | 70.0 4.3 | 45 9 | 47.6 1.2 | 3.8 0.5 | SW | 232 | 9.2 2.5 | 0.00 | 0.18 | 58.2 10.3 | 75.8 1.7 |
| Lytton East (Hill 5) | 9/2/26 | 1900 | 69.8 4.6 | 46 10 | 48.2 0.9 | 6.4 1.8 | WSW | 240 | 11.6 3.0 | 0.00 | 0.17 | 57.9 5.8 | 76.2 2.5 |
| Lytton West Lower (Lew 6) | 9/2/26 | 1900 | 69.5 4.0 | 46 9 | 48.0 1.2 | 6.5 1.5 | WSW | 240 | 10.8 1.8 | 0.00 | 0.19 | 58.0 10.6 | 75.5 0.6 |
| Lytton West Hill (23PS) | 9/2/26 | 1900 | 69.3 3.6 | 49 8 | 49.3 0.8 | 3.6 0.6 | WSW | 258 | 9.1 1.4 | 0.00 | 0.17 | 58.4 5.3 | 76.0 2.6 |
| Big River | 9/2/26 | 1900 | 67.6 2.7 | 66 4 | 55.8 4.4 | 5.0 1.8 | SSW | 204 | 11.4 2.5 | 0.00 | 0.19 | 58.0 6.1 | 73.6 0.9 |
| Jimtown-North (Piccolo Ranch 15) | 9/2/26 | 1900 | 71.2 4.5 | 46 5 | 49.1 1.3 | 4.4 3.2 | SW | 223 | 9.0 5.3 | 0.00 | 0.15 | 56.6 7.8 | 76.4 1.0 |
| HWY 128/Chalk Hill Rd (Landslide) | 9/2/26 | 1900 | 68.4 1.6 | 62 6 | 55.0 4.3 | 4.9 0.4 | SSW | 196 | 10.5 0.6 | 0.00 | 0.18 | 56.1 7.6 | 75.7 1.0 |
| N Chalk Hill Rd (Ranch 63) | 9/2/26 | 1900 | 68.6 2.3 | 61 6 | 54.4 4.9 | 5.5 0.5 | SSW | 201 | 10.0 0.3 | 0.00 | 0.19 | 53.3 5.6 | 74.2 0.2 |
| Newman Knights Valley | 8/18/26 | 0015 | 56.2 1.8 | 85 4 | 51.7 0.4 | 0.8 3.5 | NE | 55 | 2.3 5.8 | 0.00 | 0.00 | 55.0 1.2 | 88.3 0.6 |
| Knights Valley (Bavarian Lion) | 9/2/26 | 1900 | 66.9 2.8 | 58 2 | 51.8 1.5 | 6.4 0.4 | WSW | 252 | 12.4 0.7 | 0.00 | 0.14 | 51.6 4.3 | 75.0 0.4 |
| Red Tail | 9/2/26 | 1900 | 66.7 2.3 | 66 1 | 55.0 1.8 | 7.2 1.0 | S | 182 | 12.7 1.0 | 0.00 | 0.16 | 56.8 7.9 | 74.9 2.0 |
| Franz Valley (Stornetta) | 9/2/26 | 1900 | 66.2 2.0 | 57 2 | 50.6 0.7 | 2.4 0.8 | WSW | 244 | 6.3 2.9 | 0.00 | 0.16 | 54.1 6.9 | 74.3 0.6 |
| Upper Dry Creek Valley | 9/2/26 | 1900 | 69.7 4.2 | 48 9 | 49.0 0.8 | 4.1 1.3 | W | 264 | 9.8 0.8 | 0.00 | 0.08 | 54.7 4.6 | 76.2 0.2 |
| Lower Dry Creek Valley | 9/2/26 | 1900 | 70.5 4.2 | 45 10 | 48.2 1.4 | 1.9 0.2 | WSW | 251 | 10.0 0.4 | 0.00 | 0.17 | 55.7 7.3 | 76.0 1.5 |
| Max | 71.2 | 66 | 55.8 | 7.2 | - | 14.5 | 0.00 | 0.19 | 59.4 | 79.5 | ||
| Avg | 68.4 | 53 | 50.2 | 4.7 | - | 10.2 | 0.00 | - | - | - | ||
| Min | 60.1 | 45 | 47.6 | 1.9 | - | 6.3 | 0.00 | 0.00 | 51.6 | 70.4 |
| Station | Date | Time | Temp (°F) | RH (%) | Dew Pt (°F) | Wind Spd (mph) | Wind Dir (°) | Wind Gust (mph) | Latest Rain (In) | Daily Rain (In) | Daily Max Temp (°F) | Daily Min Temp (°F) |
|---|---|---|---|---|---|---|---|---|---|---|---|---|
| Windsor-NW (Ranch 8) | 9/2/26 | 1900 | 66.9 2.2 | 71 1 | 57.4 2.4 | 0.0 0.0 | SW | 216 | 0.0 0.0 | 0.00 | 0.28 | 74.8 0.4 | 59.2 6.9 |
| Windsor-East (Ranch 16) | 9/2/26 | 1900 | 67.0 1.7 | 60 3 | 52.5 0.0 | 6.5 0.8 | SW | 234 | 11.4 0.7 | 0.00 | 0.15 | 75.5 0.7 | 59.1 8.2 |
| Mark West-North (Ranch 14) | 9/2/26 | 1900 | 66.7 1.4 | 61 2 | 53.1 0.5 | 2.0 0.2 | WNW | 300 | 6.1 0.5 | 0.00 | 0.13 | 75.4 0.1 | 59.5 7.5 |
| Windsor-SE (Silk Rd) | 9/2/26 | 1845 | 67.2 1.5 | 63 4 | 54.0 0.0 | 5.2 0.5 | SW | 236 | 10.3 3.3 | 0.00 | 0.20 | 73.8 0.2 | 58.9 11.8 |
| Fulton-NW (Ranch 5) | 9/2/26 | 1900 | 67.0 2.0 | 65 1 | 55.0 1.4 | 4.5 0.6 | SW | 221 | 8.7 0.3 | 0.00 | 0.11 | 74.2 0.3 | 59.5 10.6 |
| Bisordi (Fulton) | 9/2/26 | 1900 | 66.0 1.4 | 71 0 | 56.5 1.4 | 5.2 0.4 | WSW | 246 | 10.7 2.2 | 0.00 | 0.08 | 73.7 0.7 | 59.7 11.1 |
| Windsor-South (Laughlin Rd) | 9/2/26 | 1900 | 66.3 0.6 | 65 0 | 54.4 0.6 | - | - | - | 0.00 | 0.11 | 74.8 0.1 | 59.0 7.4 |
| Fulton-SE (Barnes Rd) | 9/2/26 | 1900 | 67.2 2.2 | 64 3 | 54.6 1.0 | 4.3 1.2 | WSW | 238 | 8.1 2.9 | 0.00 | 0.10 | 74.5 1.5 | 59.9 9.0 |
| Fulton-SW (Ranch 21) | 9/2/26 | 1900 | 66.6 1.6 | 65 1 | 54.4 1.0 | 5.6 1.1 | WSW | 246 | 10.8 1.9 | 0.00 | 0.09 | 73.0 0.7 | 59.4 9.1 |
| NW Santa Rosa (Piner Road) | 9/2/26 | 1900 | 66.0 1.2 | 76 1 | 58.2 1.4 | 4.3 1.0 | WSW | 246 | 9.3 1.6 | 0.00 | 0.00 | 74.1 0.9 | 59.6 12.3 |
| River Rd South (Denner Ranch) | 9/2/26 | 1900 | 66.0 2.1 | 65 2 | 53.9 0.9 | 8.8 0.7 | SW | 233 | 13.4 1.5 | - | - | 73.6 0.1 | 57.6 9.4 |
| West Santa Rosa (LOV Vineyard) | 8/26/26 | 0900 | 53.3 5.2 | 97 6 | 52.4 3.5 | 1.0 0.1 | SW | 224 | 3.6 0.0 | 0.00 | 0.00 | 53.6 5.2 | 50.2 1.8 |
| Guerneville Rd (Prokopakis) | 9/2/26 | 1900 | 67.4 2.1 | 65 2 | 55.1 1.1 | - | - | - | 0.00 | 0.09 | 77.0 2.5 | 59.2 10.9 |
| SunnyView Vineyard (SCWC) | 9/2/26 | 1900 | 66.2 1.2 | 64 1 | 53.8 0.6 | 5.3 1.0 | SW | 231 | 8.6 0.6 | 0.00 | 0.08 | 73.8 0.2 | 59.2 13.8 |
| Guerneville Rd West (Balletto) | 9/2/26 | 1900 | 66.5 1.2 | 72 0 | 57.2 1.0 | 5.1 0.9 | WSW | 238 | 8.9 0.1 | 0.00 | 0.12 | 73.4 0.1 | 59.2 11.0 |
| Sanchietti Ranch | 9/2/26 | 1900 | 66.8 1.3 | 78 2 | 59.8 2.0 | 4.7 0.4 | WSW | 243 | 9.9 2.3 | 0.00 | 0.07 | 74.4 0.3 | 58.6 9.5 |
| Occidental Rd (Sebastopol) | 9/2/26 | 1900 | 65.4 0.5 | 100 8 | 65.4 2.8 | 4.4 0.2 | SW | 218 | 9.9 0.9 | 0.00 | 0.06 | 74.4 1.0 | 57.5 7.6 |
| Harper's Rest (Windsor-West) | 9/2/26 | 1900 | 64.0 0.5 | 68 0 | 53.3 0.4 | 3.1 1.4 | WSW | 247 | 10.6 3.3 | 0.00 | 0.27 | 75.7 0.0 | 58.0 9.8 |
| Lower Westside Rd (Ranch 12) | 9/2/26 | 1900 | 64.7 0.6 | 69 0 | 54.5 0.5 | 4.9 2.3 | WSW | 251 | 10.2 2.9 | 0.00 | 0.28 | 73.2 1.1 | 58.8 11.1 |
| Guerneville (Laughlin Rd) | 9/2/26 | 1900 | 63.2 1.3 | 75 8 | 55.2 1.9 | 4.0 3.0 | SSE | 161 | 7.5 3.0 | 0.00 | 0.38 | 72.4 1.5 | 58.0 11.5 |
| Korbel (Winery) | 9/2/26 | 1900 | 65.1 0.8 | 72 0 | 55.9 0.9 | 1.6 0.8 | WNW | 300 | 7.3 0.5 | 0.00 | 0.20 | 72.0 1.4 | 59.2 10.5 |
| Forestville (Shone Farms) | 9/2/26 | 1900 | 65.2 1.6 | 71 3 | 55.6 0.4 | 4.0 1.4 | SW | 229 | 10.3 3.0 | 0.00 | 0.28 | 74.2 0.2 | 57.6 6.1 |
| Forestville-NE (Ranch 30) | 9/2/26 | 1900 | 64.2 1.4 | 76 3 | 56.5 0.3 | 4.9 0.4 | SW | 230 | 10.4 1.1 | 0.00 | 0.26 | 74.2 0.5 | 58.1 8.7 |
| Foggy Bend (Ranch 41) | 9/2/26 | 1900 | 65.8 1.7 | 73 2 | 57.0 0.8 | 4.1 1.0 | WSW | 248 | 10.9 1.8 | 0.00 | 0.26 | 73.2 0.7 | 59.2 8.6 |
| Last Stop | 9/2/26 | 1900 | 63.9 0.1 | 72 0 | 54.6 0.3 | 2.9 0.8 | WSW | 252 | 7.2 0.4 | 0.00 | 0.27 | 72.5 0.4 | 58.9 11.5 |
| Green Valley Vineyard | 9/2/26 | 1900 | 63.8 0.9 | 73 0 | 55.1 1.1 | 2.9 0.0 | WSW | 246 | 8.3 0.4 | 0.00 | 0.34 | 72.2 0.4 | 58.2 9.4 |
| Park Royal | 9/2/26 | 1900 | 67.0 1.9 | 66 0 | 55.4 1.9 | - | - | - | 0.00 | 0.05 | 73.9 0.3 | 59.4 10.2 |
| Merino | 9/2/26 | 1900 | 66.6 0.8 | 72 3 | 57.4 1.9 | 2.5 0.7 | SSW | 212 | 6.9 1.4 | 0.00 | 0.07 | 77.0 0.3 | 57.2 10.3 |
| Green Valley (Sanchietti) | 9/2/26 | 1900 | 65.4 0.7 | - | - | - | - | - | - | - | 74.6 0.9 | 58.8 15.1 |
| Keefer Ranch (Green Valley) | 9/2/26 | 1900 | 64.1 0.2 | 74 2 | 55.7 0.9 | - | - | - | 0.00 | 0.28 | 73.4 1.2 | 58.9 12.9 |
| Graton-West (Dutton Ranch) | 9/2/26 | 1900 | 64.1 0.1 | 100 1 | 64.1 0.5 | 2.4 0.6 | SW | 221 | 7.4 1.0 | 0.00 | 0.29 | 73.5 1.0 | 59.3 12.8 |
| Graton-South (Mill Station Rd) | 9/2/26 | 1900 | 64.7 1.0 | 74 0 | 56.4 0.9 | 2.6 0.3 | WSW | 237 | 5.4 1.1 | 0.00 | 0.13 | 70.9 0.0 | 57.5 6.5 |
| Occidental (Horseshoe Bend) | 9/2/26 | 1900 | 61.3 0.2 | 84 4 | 56.5 1.4 | - | - | - | 0.00 | 0.31 | 68.7 1.9 | 57.9 7.8 |
| Sexton Valley (Jacqueline's Blk) | 9/2/26 | 1900 | 64.2 0.4 | 83 3 | 59.0 1.5 | 1.4 2.0 | SW | 217 | 5.1 5.6 | 0.00 | 0.14 | 72.3 0.8 | 56.4 4.4 |
| Sebastopol Hills (Burnside Rd) | 9/2/26 | 1900 | 61.7 0.0 | 90 4 | 58.8 1.2 | 3.3 1.3 | SW | 218 | 8.8 0.3 | 0.00 | 0.00 | 69.3 0.5 | 58.0 3.8 |
| Pleasant Hill | 9/2/26 | 1900 | 63.6 0.1 | 78 0 | 56.5 0.2 | 3.1 0.1 | WSW | 240 | 7.9 0.1 | 0.00 | 0.16 | 74.1 0.2 | 56.3 2.6 |
| Seaview/Fort Ross (Hirsch) | 9/2/26 | 1900 | 56.7 0.1 | 91 0 | 54.2 0.1 | 1.1 0.1 | WSW | 257 | 3.3 0.2 | 0.00 | 0.00 | 64.7 0.8 | 55.2 2.1 |
| Max | 67.4 | 100 | 65.4 | 8.8 | - | 13.4 | 0.00 | 0.38 | 77.0 | 59.9 | ||
| Avg | 65.1 | 73 | 56.2 | 3.8 | - | 8.5 | 0.00 | - | - | - | ||
| Min | 56.7 | 60 | 52.5 | 0.0 | - | 0.0 | 0.00 | 0.00 | 64.7 | 55.2 |
| Station | Date | Time | Temp (°F) | RH (%) | Dew Pt (°F) | Wind Spd (mph) | Wind Dir (°) | Wind Gust (mph) | Latest Rain (In) | Daily Rain (In) | Daily Min Temp (°F) | Daily Max Temp (°F) |
|---|---|---|---|---|---|---|---|---|---|---|---|---|
| Upper Rincon Valley | 9/2/26 | 1900 | 63.8 2.1 | 71 3 | 54.5 3.1 | 1.1 1.3 | SSW | 201 | 5.0 2.8 | 0.00 | 0.00 | 55.9 2.5 | 72.0 0.3 |
| Lower Bennett Valley | 9/2/26 | 1900 | 64.1 1.0 | 75 0 | 55.8 0.9 | 5.9 0.1 | SW | 234 | 11.7 1.6 | 0.00 | 0.06 | 52.5 2.3 | 73.5 0.2 |
| Kenwood (Wildwood) | 9/2/26 | 1900 | 66.0 2.4 | 64 4 | 53.4 0.5 | 3.7 0.6 | NNW | 341 | 9.6 0.2 | 0.00 | 0.06 | 52.8 3.1 | 74.8 0.2 |
| Crane Creek (Ranch 62) | 9/2/26 | 1900 | 65.6 0.0 | 69 1 | 55.2 0.2 | 1.4 1.3 | SW | 231 | 5.4 3.1 | 0.00 | 0.01 | 57.2 2.5 | 77.3 2.1 |
| Rohnert Park-West (Stony Point) | 9/2/26 | 1900 | 64.9 1.3 | 77 6 | 57.5 0.8 | 5.0 3.1 | W | 259 | 9.8 5.1 | 0.00 | 0.04 | 54.7 1.4 | 72.4 0.8 |
| Rice-Spivak Vineyard | 9/2/26 | 1900 | 64.5 0.9 | - | - | - | - | - | - | - | 51.4 5.2 | 73.5 1.0 |
| Cartograph Wines Base | 9/2/26 | 1900 | 62.8 0.1 | 84 1 | 57.9 0.6 | 6.4 0.6 | SW | 228 | 12.3 0.4 | 0.00 | 0.08 | 55.4 0.6 | 71.2 0.0 |
| Cartograph Wines Remote | 9/2/26 | 1900 | 63.3 0.5 | - | - | - | - | - | - | - | 54.6 1.8 | 70.8 3.3 |
| Penngrove (Asellus) | 9/2/26 | 1900 | 65.5 1.0 | 70 3 | 55.3 0.1 | 3.8 1.2 | WSW | 257 | 8.2 4.0 | 0.00 | 0.00 | 54.2 2.7 | 74.8 0.3 |
| Sonoma Valley (Bedrock) | 9/2/26 | 1900 | 68.6 4.5 | 53 5 | 50.8 1.9 | - | - | - | 0.00 | 0.09 | 52.6 1.8 | 74.3 1.1 |
| Sonoma-West (Arnold) | 9/2/26 | 1900 | 67.9 2.6 | 58 5 | 52.8 0.3 | 6.2 2.4 | WSW | 258 | 14.0 5.8 | 0.00 | 0.06 | 52.8 1.9 | 77.0 0.8 |
| Sonoma Valley HS | 9/2/26 | 1900 | 69.2 2.5 | 61 3 | 55.2 0.9 | 2.2 2.3 | W | 270 | 5.3 4.8 | 0.00 | 0.01 | 54.5 0.8 | 76.5 0.8 |
| Sonoma East (Bundschu01) | 9/2/26 | 1900 | 69.0 1.9 | 54 0 | 51.8 1.7 | 6.8 0.2 | W | 268 | 13.4 2.8 | 0.00 | 0.05 | 51.5 1.7 | 76.1 0.1 |
| Sonoma-SE (Napoli) | 9/2/26 | 1900 | 70.0 2.9 | 52 1 | 51.8 2.3 | 6.5 1.2 | W | 269 | 11.5 1.3 | 0.00 | 0.00 | 51.0 5.8 | 79.1 1.9 |
| Schellville (Sasaki) | 2/7/26 | 1900 | 53.4 2.2 | 88 10 | 49.9 1.0 | 3.3 1.8 | SW | 225 | 5.8 4.0 | 0.00 | 0.00 | 47.0 0.8 | 62.8 8.4 |
| Petaluma (Ranch 10) | 9/2/26 | 1900 | 67.3 1.9 | 62 4 | 53.7 0.3 | 4.7 1.2 | W | 259 | 8.7 3.0 | 0.00 | 0.03 | 51.7 6.6 | 76.2 1.5 |
| Carneros (Ranch 71) | 9/2/26 | 1900 | 67.6 2.0 | 55 1 | 51.2 1.6 | 11.3 1.7 | W | 269 | 20.5 2.2 | 0.00 | 0.01 | 56.9 0.2 | 74.9 0.4 |
| Ricci Vineyards (Carneros) | 9/2/26 | 1900 | 69.0 2.0 | 52 3 | 51.0 0.3 | 7.8 1.8 | WNW | 286 | 12.5 4.7 | 0.00 | 0.02 | 52.0 6.0 | 77.1 0.7 |
| Carneros Upper (Ranch 81) | 9/2/26 | 1900 | 67.5 2.1 | 55 1 | 50.9 1.5 | 15.0 1.3 | W | 261 | 21.6 3.7 | - | - | 57.4 0.5 | 75.9 2.1 |
| Carneros Lower (Ranch 81) | 9/2/26 | 1900 | 67.8 1.2 | 57 1 | 52.2 1.6 | 2.2 0.7 | WNW | 300 | 8.1 1.3 | 0.00 | 0.00 | 52.0 5.1 | 80.3 1.7 |
| Max | 70.0 | 84 | 57.9 | 15.0 | - | 21.6 | 0.00 | 0.09 | 57.4 | 80.3 | ||
| Avg | 66.5 | 63 | 53.6 | 5.6 | - | 11.1 | 0.00 | - | - | - | ||
| Min | 62.8 | 52 | 50.8 | 1.1 | - | 5.0 | 0.00 | 0.00 | 51.0 | 70.8 |